createdAt,value
2022-10-24T00:01:18.452Z,69.80
2022-10-24T00:03:46.867Z,69.80
2022-10-24T00:06:14.289Z,69.90
2022-10-24T00:08:43.305Z,70.00
2022-10-24T00:11:22.215Z,69.90
2022-10-24T00:13:50.455Z,69.90
2022-10-24T00:16:18.197Z,69.80
2022-10-24T00:18:45.689Z,69.80
2022-10-24T00:21:13.038Z,69.60
2022-10-24T00:23:40.135Z,69.50
2022-10-24T00:26:07.619Z,69.50
2022-10-24T00:28:36.258Z,69.50
2022-10-24T00:31:06.778Z,69.20
2022-10-24T00:33:33.942Z,69.20
2022-10-24T00:36:00.926Z,69.30
2022-10-24T00:38:27.980Z,69.10
2022-10-24T00:40:54.939Z,69.10
2022-10-24T00:43:27.206Z,68.90
2022-10-24T00:45:59.589Z,68.80
2022-10-24T00:48:44.628Z,68.70
2022-10-24T00:51:24.939Z,68.80
2022-10-24T00:54:05.074Z,68.80
2022-10-24T00:56:36.276Z,68.80
2022-10-24T00:59:07.322Z,68.70
2022-10-24T01:01:36.056Z,68.60
2022-10-24T01:04:05.316Z,68.90
2022-10-24T01:06:50.303Z,68.90
2022-10-24T01:09:30.904Z,68.80
2022-10-24T01:16:49.944Z,68.90
2022-10-24T01:19:45.196Z,69.10
2022-10-24T01:22:25.173Z,69.30
2022-10-24T01:25:16.604Z,69.60
2022-10-24T01:28:09.099Z,69.80
2022-10-24T01:30:46.953Z,70.00
2022-10-24T01:33:24.593Z,69.80
2022-10-24T01:36:25.451Z,69.70
2022-10-24T01:38:58.149Z,70.50
2022-10-24T01:41:28.331Z,70.50
2022-10-24T01:44:21.766Z,70.50
2022-10-24T01:47:23.277Z,70.80
2022-10-24T01:50:00.267Z,70.90
2022-10-24T01:52:31.286Z,71.00
2022-10-24T01:55:01.651Z,71.00
2022-10-24T01:57:37.660Z,71.10
2022-10-24T02:00:21.188Z,71.40
2022-10-24T02:11:07.410Z,71.50
2022-10-24T02:14:10.963Z,72.40
2022-10-24T02:16:39.027Z,71.70
2022-10-24T02:19:16.142Z,71.20
2022-10-24T02:22:25.509Z,71.20
2022-10-24T02:25:13.046Z,71.40
2022-10-24T02:28:10.910Z,71.30
2022-10-24T02:30:48.829Z,71.20
2022-10-24T02:33:19.490Z,71.40
2022-10-24T02:35:48.200Z,71.40
2022-10-24T02:38:25.691Z,71.30
2022-10-24T02:40:56.871Z,71.20
2022-10-24T02:43:27.514Z,71.20
2022-10-24T02:45:56.904Z,71.20
2022-10-24T02:48:37.951Z,71.10
2022-10-24T02:51:09.529Z,71.20
2022-10-24T02:53:38.316Z,71.00
2022-10-24T02:56:10.484Z,71.00
2022-10-24T02:58:46.328Z,71.00
2022-10-24T03:01:15.124Z,71.00
2022-10-24T03:03:44.409Z,70.80
2022-10-24T03:06:12.939Z,70.70
2022-10-24T03:08:40.345Z,70.90
2022-10-24T03:11:09.220Z,70.70
2022-10-24T03:13:38.223Z,70.50
2022-10-24T03:16:11.711Z,70.50
2022-10-24T03:18:43.669Z,70.50
2022-10-24T03:21:14.186Z,70.40
2022-10-24T03:23:41.791Z,70.50
2022-10-24T03:26:14.456Z,70.40
2022-10-24T03:28:44.232Z,70.50
2022-10-24T03:31:12.354Z,70.40
2022-10-24T03:33:42.143Z,70.50
2022-10-24T03:36:10.476Z,70.50
2022-10-24T03:38:38.675Z,70.50
2022-10-24T03:41:07.773Z,70.40
2022-10-24T03:43:38.038Z,70.30
2022-10-24T03:46:07.367Z,70.40
2022-10-24T03:48:35.399Z,70.40
2022-10-24T03:51:03.616Z,70.40
2022-10-24T03:53:32.376Z,70.50
2022-10-24T03:56:00.566Z,70.40
2022-10-24T03:58:36.363Z,70.30
2022-10-24T04:01:09.877Z,70.30
2022-10-24T04:03:41.217Z,70.40
2022-10-24T04:06:16.269Z,70.30
2022-10-24T04:08:47.045Z,70.30
2022-10-24T04:11:17.619Z,70.30
2022-10-24T04:13:47.085Z,70.40
2022-10-24T04:16:15.971Z,70.40
2022-10-24T04:18:45.893Z,70.30
2022-10-24T04:21:16.856Z,71.20
2022-10-24T04:23:55.538Z,70.20
2022-10-24T04:26:24.384Z,70.20
2022-10-24T04:28:54.589Z,70.10
2022-10-24T04:31:23.675Z,70.00
2022-10-24T04:33:53.873Z,70.00
2022-10-24T04:36:23.168Z,69.70
2022-10-24T04:38:53.875Z,69.60
2022-10-24T04:41:22.863Z,69.50
2022-10-24T04:43:51.860Z,69.30
2022-10-24T04:46:18.831Z,69.20
2022-10-24T04:48:47.948Z,69.10
2022-10-24T04:51:20.023Z,69.10
2022-10-24T04:53:54.411Z,69.30
2022-10-24T04:56:23.089Z,69.70
2022-10-24T05:02:43.046Z,71.00
2022-10-24T05:05:10.758Z,70.30
2022-10-24T05:07:38.327Z,70.40
2022-10-24T05:10:07.501Z,70.50
2022-10-24T05:12:34.633Z,70.40
2022-10-24T05:15:01.782Z,70.40
2022-10-24T05:17:28.682Z,70.40
2022-10-24T05:19:55.622Z,70.40
2022-10-24T05:22:24.035Z,70.40
2022-10-24T05:24:51.444Z,70.30
2022-10-24T05:27:24.877Z,70.20
2022-10-24T05:29:52.876Z,70.00
2022-10-24T05:32:21.639Z,69.90
2022-10-24T05:34:49.650Z,69.90
2022-10-24T05:37:17.529Z,69.80
2022-10-24T05:39:44.615Z,69.80
2022-10-24T05:42:11.827Z,69.70
2022-10-24T05:44:39.634Z,69.80
2022-10-24T05:47:07.025Z,69.70
2022-10-24T05:49:34.368Z,69.60
2022-10-24T05:52:01.915Z,69.70
2022-10-24T05:54:37.577Z,69.60
2022-10-24T05:57:15.670Z,69.60
2022-10-24T05:59:43.215Z,69.60
2022-10-24T06:02:21.390Z,69.50
2022-10-24T06:04:50.731Z,69.40
2022-10-24T06:07:19.156Z,69.40
2022-10-24T06:09:46.219Z,69.30
2022-10-24T06:12:13.935Z,69.30
2022-10-24T06:14:41.325Z,69.30
2022-10-24T06:17:12.162Z,69.30
2022-10-24T06:19:40.510Z,69.30
2022-10-24T06:22:08.654Z,69.30
2022-10-24T06:24:38.116Z,69.40
2022-10-24T06:27:06.204Z,69.40
2022-10-24T06:29:33.789Z,69.40
2022-10-24T06:32:00.833Z,69.40
2022-10-24T06:34:28.037Z,69.80
2022-10-24T06:36:55.705Z,70.40
2022-10-24T06:39:22.842Z,70.30
2022-10-24T06:41:50.470Z,71.00
2022-10-24T06:44:18.191Z,70.90
2022-10-24T06:46:46.045Z,69.60
2022-10-24T06:49:14.282Z,69.30
2022-10-24T06:51:41.810Z,67.80
2022-10-24T06:54:09.022Z,66.10
2022-10-24T06:56:36.051Z,64.60
2022-10-24T06:59:03.059Z,61.60
2022-10-24T07:01:31.651Z,61.10
2022-10-24T07:03:58.733Z,60.60
2022-10-24T07:06:29.198Z,60.00
2022-10-24T07:08:59.379Z,61.50
2022-10-24T07:11:27.681Z,60.20
2022-10-24T07:13:57.940Z,60.20
2022-10-24T07:16:29.806Z,60.40
2022-10-24T07:18:58.451Z,60.50
2022-10-24T07:21:28.653Z,60.70
2022-10-24T07:23:57.812Z,61.20
2022-10-24T07:26:27.707Z,61.70
2022-10-24T07:28:56.651Z,62.00
2022-10-24T07:31:26.740Z,61.50
2022-10-24T07:33:54.045Z,61.50
2022-10-24T07:36:23.596Z,60.90
2022-10-24T07:38:52.757Z,61.00
2022-10-24T07:41:20.712Z,60.80
2022-10-24T07:43:48.300Z,60.90
2022-10-24T07:46:17.280Z,60.90
2022-10-24T07:48:44.581Z,60.70
2022-10-24T07:51:15.283Z,60.40
2022-10-24T07:53:43.414Z,61.00
2022-10-24T07:56:15.799Z,60.70
2022-10-24T07:58:44.327Z,61.00
2022-10-24T08:01:15.047Z,60.40
2022-10-24T08:03:42.704Z,59.90
2022-10-24T08:06:12.806Z,59.10
2022-10-24T08:08:40.656Z,58.20
2022-10-24T08:11:17.092Z,56.80
2022-10-24T08:13:44.438Z,56.50
2022-10-24T08:16:13.413Z,56.20
2022-10-24T08:18:40.411Z,56.10
2022-10-24T08:21:13.726Z,55.40
2022-10-24T08:23:43.715Z,55.10
2022-10-24T08:26:14.384Z,55.10
2022-10-24T08:28:42.498Z,55.00
2022-10-24T08:31:13.983Z,55.00
2022-10-24T08:33:41.945Z,54.60
2022-10-24T08:36:35.803Z,54.70
2022-10-24T08:39:03.635Z,54.90
2022-10-24T08:41:33.353Z,55.50
2022-10-24T08:44:03.326Z,55.50
2022-10-24T08:46:49.073Z,54.80
2022-10-24T08:49:39.622Z,53.70
2022-10-24T08:52:23.654Z,53.10
2022-10-24T08:54:52.604Z,53.10
2022-10-24T08:57:30.864Z,53.20
2022-10-24T09:00:02.378Z,53.30
2022-10-24T09:02:37.889Z,53.50
2022-10-24T09:05:18.308Z,53.90
2022-10-24T09:07:47.770Z,53.90
2022-10-24T09:10:24.536Z,54.30
2022-10-24T09:12:52.759Z,54.60
2022-10-24T09:15:30.870Z,54.80
2022-10-24T09:17:59.122Z,54.60
2022-10-24T09:20:33.410Z,54.30
2022-10-24T09:23:05.091Z,54.60
2022-10-24T09:25:35.379Z,54.70
2022-10-24T09:28:05.334Z,54.30
2022-10-24T09:30:33.530Z,54.90
2022-10-24T09:33:25.688Z,54.50
2022-10-24T09:35:55.607Z,54.80
2022-10-24T09:38:37.246Z,54.20
2022-10-24T09:41:08.320Z,54.10
2022-10-24T09:43:56.341Z,54.20
2022-10-24T09:46:26.152Z,53.30
2022-10-24T09:49:01.561Z,53.20
2022-10-24T09:51:34.113Z,52.60
2022-10-24T09:54:26.724Z,50.40
2022-10-24T09:59:46.019Z,49.00
2022-10-24T10:02:23.323Z,48.40
2022-10-24T10:05:03.671Z,48.10
2022-10-24T10:07:32.458Z,47.60
2022-10-24T10:10:05.284Z,47.70
2022-10-24T10:12:38.110Z,47.80
2022-10-24T10:15:46.033Z,48.10
2022-10-24T10:18:25.246Z,48.20
2022-10-24T10:21:04.033Z,48.80
2022-10-24T10:23:50.243Z,49.00
2022-10-24T10:26:42.529Z,49.00
2022-10-24T10:29:19.235Z,49.50
2022-10-24T10:32:07.145Z,49.50
2022-10-24T10:35:12.564Z,49.90
2022-10-24T10:37:59.846Z,50.20
2022-10-24T10:40:44.783Z,51.20
2022-10-24T10:43:36.232Z,50.90
2022-10-24T10:46:08.165Z,51.20
2022-10-24T10:48:36.434Z,51.60
2022-10-24T10:51:08.319Z,52.00
2022-10-24T10:53:57.522Z,52.20
2022-10-24T10:56:30.677Z,52.60
2022-10-24T10:59:34.382Z,52.80
2022-10-24T11:02:25.774Z,53.30
2022-10-24T11:05:24.234Z,53.50
2022-10-24T11:08:24.185Z,53.80
2022-10-24T11:11:01.747Z,53.90
2022-10-24T11:13:34.464Z,54.10
2022-10-24T11:16:05.871Z,54.30
2022-10-24T11:18:36.296Z,54.40
2022-10-24T11:21:13.016Z,54.70
2022-10-24T11:23:57.911Z,54.90
2022-10-24T11:26:26.907Z,55.30
2022-10-24T11:29:08.889Z,55.50
2022-10-24T11:31:59.111Z,55.50
2022-10-24T11:34:51.297Z,55.60
2022-10-24T11:37:24.464Z,55.80
2022-10-24T11:40:03.602Z,55.90
2022-10-24T11:42:50.516Z,56.10
2022-10-24T11:45:25.102Z,56.40
2022-10-24T11:48:28.761Z,56.30
2022-10-24T11:51:09.344Z,56.60
2022-10-24T11:53:38.479Z,56.70
2022-10-24T11:56:27.130Z,56.70
2022-10-24T11:59:04.049Z,56.80
2022-10-24T12:01:51.527Z,56.90
2022-10-24T12:04:56.799Z,56.80
2022-10-24T12:07:35.952Z,56.80
2022-10-24T12:10:15.101Z,56.60
2022-10-24T12:13:08.163Z,56.10
2022-10-24T12:15:59.789Z,56.10
2022-10-24T12:18:34.466Z,56.10
2022-10-24T12:21:08.634Z,56.20
2022-10-24T12:23:35.800Z,56.10
2022-10-24T12:26:05.912Z,56.20
2022-10-24T12:28:33.688Z,56.10
2022-10-24T12:31:16.030Z,56.20
2022-10-24T12:33:44.658Z,56.20
2022-10-24T12:36:12.317Z,56.00
2022-10-24T12:38:39.799Z,56.10
2022-10-24T12:41:32.974Z,56.20
2022-10-24T12:44:39.177Z,56.10
2022-10-24T12:47:31.380Z,56.20
2022-10-24T12:50:20.477Z,56.20
2022-10-24T12:52:48.397Z,56.10
2022-10-24T12:55:39.617Z,56.10
2022-10-24T12:58:36.165Z,56.10
2022-10-24T13:01:09.281Z,56.10
2022-10-24T13:04:05.688Z,56.00
2022-10-24T13:06:51.573Z,56.10
2022-10-24T13:09:22.214Z,55.90
2022-10-24T13:12:10.655Z,56.00
2022-10-24T13:15:00.641Z,55.90
2022-10-24T13:17:33.571Z,55.80
2022-10-24T13:20:21.939Z,55.90
2022-10-24T13:22:51.221Z,55.80
2022-10-24T13:25:33.938Z,55.90
2022-10-24T13:28:20.058Z,56.00
2022-10-24T13:31:07.683Z,56.10
2022-10-24T13:33:36.489Z,56.10
2022-10-24T13:36:14.882Z,56.10
2022-10-24T13:38:51.239Z,56.00
2022-10-24T13:41:49.699Z,55.80
2022-10-24T13:44:49.791Z,55.30
2022-10-24T13:47:32.295Z,55.10
2022-10-24T13:50:21.649Z,54.70
2022-10-24T13:52:57.967Z,54.10
2022-10-24T13:55:35.536Z,53.50
2022-10-24T13:58:05.940Z,53.50
2022-10-24T14:00:38.018Z,53.50
2022-10-24T14:03:12.956Z,53.00
2022-10-24T14:05:49.249Z,52.70
2022-10-24T14:08:27.154Z,51.90
2022-10-24T14:10:55.462Z,51.80
2022-10-24T14:13:25.017Z,51.90
2022-10-24T14:16:04.533Z,52.20
2022-10-24T14:18:32.966Z,52.50
2022-10-24T14:21:02.189Z,52.10
2022-10-24T14:23:39.255Z,52.20
2022-10-24T14:26:19.867Z,52.00
2022-10-24T14:28:58.824Z,51.80
2022-10-24T14:31:38.516Z,51.40
2022-10-24T14:34:09.629Z,51.60
2022-10-24T14:36:39.357Z,51.40
2022-10-24T14:39:06.846Z,51.00
2022-10-24T14:41:40.156Z,51.20
2022-10-24T14:44:08.248Z,51.70
2022-10-24T14:46:40.590Z,51.10
2022-10-24T14:49:21.508Z,51.10
2022-10-24T14:54:32.281Z,50.90
2022-10-24T14:57:02.185Z,50.20
2022-10-24T14:59:39.596Z,50.00
2022-10-24T15:02:21.232Z,49.50
2022-10-24T15:04:50.450Z,49.40
2022-10-24T15:07:23.589Z,49.70
2022-10-24T15:10:00.143Z,49.70
2022-10-24T15:12:33.009Z,50.20
2022-10-24T15:15:22.769Z,49.60
2022-10-24T15:18:16.202Z,49.40
2022-10-24T15:20:47.028Z,49.40
2022-10-24T15:23:35.971Z,48.90
2022-10-24T15:26:11.631Z,48.80
2022-10-24T15:28:55.952Z,48.60
2022-10-24T15:31:27.614Z,49.10
2022-10-24T15:33:55.851Z,48.60
2022-10-24T15:36:31.968Z,48.70
2022-10-24T15:39:05.492Z,49.00
2022-10-24T15:41:32.753Z,49.20
2022-10-24T15:44:00.730Z,49.70
2022-10-24T15:46:28.547Z,49.70
2022-10-24T15:48:55.669Z,49.50
2022-10-24T15:51:24.965Z,49.10
2022-10-24T15:53:53.832Z,49.00
2022-10-24T15:56:21.071Z,49.00
2022-10-24T15:58:51.266Z,49.20
2022-10-24T16:01:28.634Z,49.20
2022-10-24T16:03:57.428Z,49.10
2022-10-24T16:06:25.284Z,49.10
2022-10-24T16:08:53.268Z,49.10
2022-10-24T16:11:20.940Z,49.40
2022-10-24T16:13:48.515Z,49.50
2022-10-24T16:16:15.681Z,49.60
2022-10-24T16:18:45.080Z,49.60
2022-10-24T16:21:19.155Z,49.90
2022-10-24T16:23:48.846Z,50.10
2022-10-24T16:26:18.158Z,50.30
2022-10-24T16:28:45.194Z,50.40
2022-10-24T16:31:23.600Z,51.40
2022-10-24T16:33:52.649Z,50.80
2022-10-24T16:36:24.562Z,51.10
2022-10-24T16:38:52.773Z,51.20
2022-10-24T16:41:25.116Z,51.20
2022-10-24T16:44:00.817Z,51.40
2022-10-24T16:46:31.893Z,51.50
2022-10-24T16:49:02.617Z,51.70
2022-10-24T16:51:32.552Z,51.80
2022-10-24T16:54:02.648Z,51.90
2022-10-24T16:56:31.083Z,52.00
2022-10-24T16:58:58.407Z,52.20
2022-10-24T17:01:29.768Z,52.30
2022-10-24T17:03:58.073Z,52.40
2022-10-24T17:06:25.619Z,52.60
2022-10-24T17:08:52.852Z,52.70
2022-10-24T17:11:43.778Z,52.90
2022-10-24T17:14:12.352Z,53.10
2022-10-24T17:16:41.263Z,53.20
2022-10-24T17:19:17.500Z,53.50
2022-10-24T17:21:48.096Z,53.70
2022-10-24T17:24:21.694Z,53.80
2022-10-24T17:26:50.889Z,54.10
2022-10-24T17:29:47.642Z,55.00
2022-10-24T17:32:22.215Z,54.50
2022-10-24T17:35:00.910Z,54.70
2022-10-24T17:37:52.284Z,55.10
2022-10-24T17:40:25.267Z,55.30
2022-10-24T17:42:53.213Z,55.60
2022-10-24T17:45:32.675Z,55.50
2022-10-24T17:48:02.065Z,56.50
2022-10-24T17:50:29.792Z,55.90
2022-10-24T17:52:59.078Z,56.10
2022-10-24T17:55:46.714Z,56.10
2022-10-24T17:58:17.031Z,56.10
2022-10-24T18:00:45.079Z,56.10
2022-10-24T18:03:15.349Z,56.10
2022-10-24T18:05:42.977Z,56.40
2022-10-24T18:08:15.028Z,56.40
2022-10-24T18:10:42.854Z,56.40
2022-10-24T18:13:10.206Z,56.60
2022-10-24T18:15:40.862Z,56.60
2022-10-24T18:18:08.551Z,56.90
2022-10-24T18:20:35.835Z,57.00
2022-10-24T18:23:04.752Z,57.00
2022-10-24T18:25:32.162Z,57.00
2022-10-24T18:27:59.146Z,57.10
2022-10-24T18:30:27.559Z,57.40
2022-10-24T18:32:54.643Z,57.50
2022-10-24T18:35:23.464Z,57.60
2022-10-24T18:40:19.766Z,57.70
2022-10-24T18:42:57.917Z,57.80
2022-10-24T18:45:28.226Z,58.10
2022-10-24T18:47:56.840Z,58.20
2022-10-24T18:50:26.171Z,58.30
2022-10-24T18:52:53.412Z,59.00
2022-10-24T18:55:43.681Z,58.70
2022-10-24T18:58:19.705Z,58.90
2022-10-24T19:00:48.120Z,58.90
2022-10-24T19:03:36.975Z,58.90
2022-10-24T19:06:28.040Z,59.00
2022-10-24T19:08:55.191Z,59.40
2022-10-24T19:11:24.388Z,59.40
2022-10-24T19:13:51.409Z,59.40
2022-10-24T19:16:27.471Z,59.70
2022-10-24T19:19:00.414Z,59.80
2022-10-24T19:21:28.522Z,60.00
2022-10-24T19:23:55.839Z,59.90
2022-10-24T19:26:22.907Z,60.20
2022-10-24T19:28:50.102Z,60.50
2022-10-24T19:31:17.173Z,60.60
2022-10-24T19:33:45.005Z,61.00
2022-10-24T19:36:14.502Z,61.70
2022-10-24T19:38:45.477Z,62.00
2022-10-24T19:41:12.549Z,62.00
2022-10-24T19:43:39.723Z,61.90
2022-10-24T19:46:19.383Z,62.50
2022-10-24T19:48:53.318Z,62.60
2022-10-24T19:51:21.300Z,62.50
2022-10-24T19:53:49.718Z,63.10
2022-10-24T19:56:26.343Z,63.10
2022-10-24T19:58:54.674Z,63.10
2022-10-24T20:01:24.617Z,63.30
2022-10-24T20:03:52.581Z,63.20
2022-10-24T20:06:19.907Z,63.20
2022-10-24T20:08:48.606Z,63.40
2022-10-24T20:11:16.559Z,63.50
2022-10-24T20:13:44.114Z,63.70
2022-10-24T20:16:11.946Z,63.60
2022-10-24T20:21:10.299Z,64.30
2022-10-24T20:23:37.989Z,64.20
2022-10-24T20:26:11.144Z,64.20
2022-10-24T20:28:45.767Z,64.30
2022-10-24T20:31:32.293Z,64.10
2022-10-24T20:34:06.732Z,64.40
2022-10-24T20:36:38.621Z,64.10
2022-10-24T20:39:07.297Z,64.10
2022-10-24T20:41:34.665Z,63.90
2022-10-24T20:44:02.686Z,63.70
2022-10-24T20:46:31.307Z,63.70
2022-10-24T20:48:58.522Z,63.70
2022-10-24T20:51:25.756Z,63.80
2022-10-24T20:53:54.771Z,63.70
2022-10-24T20:56:26.227Z,63.70
2022-10-24T20:58:55.521Z,63.90
2022-10-24T21:01:25.294Z,63.90
2022-10-24T21:03:53.124Z,64.00
2022-10-24T21:06:26.083Z,64.30
2022-10-24T21:08:55.850Z,64.40
2022-10-24T21:11:26.356Z,64.40
2022-10-24T21:14:00.948Z,64.70
2022-10-24T21:16:28.781Z,64.80
2022-10-24T21:18:56.771Z,64.90
2022-10-24T21:21:25.185Z,64.80
2022-10-24T21:24:03.883Z,64.70
2022-10-24T21:26:38.357Z,65.00
2022-10-24T21:29:31.234Z,64.90
2022-10-24T21:31:53.444Z,64.70
2022-10-24T21:34:20.843Z,64.60
2022-10-24T21:36:47.960Z,64.60
2022-10-24T21:39:16.567Z,64.50
2022-10-24T21:41:44.787Z,64.40
2022-10-24T21:44:12.909Z,64.30
2022-10-24T21:46:40.586Z,64.40
2022-10-24T21:49:07.655Z,64.50
2022-10-24T21:51:36.650Z,64.30
2022-10-24T21:54:06.646Z,64.30
2022-10-24T21:56:39.406Z,64.20
2022-10-24T21:59:10.954Z,64.40
2022-10-24T22:01:38.487Z,64.40
2022-10-24T22:04:07.182Z,64.20
2022-10-24T22:06:35.746Z,64.10
2022-10-24T22:09:07.910Z,64.10
2022-10-24T22:11:36.353Z,64.20
2022-10-24T22:14:04.698Z,64.20
2022-10-24T22:16:32.632Z,64.20
2022-10-24T22:19:03.536Z,64.20
2022-10-24T22:21:33.350Z,64.00
2022-10-24T22:24:14.007Z,64.10
2022-10-24T22:26:42.077Z,64.20
2022-10-24T22:29:12.574Z,64.10
2022-10-24T22:31:40.225Z,64.00
2022-10-24T22:34:07.907Z,65.00
2022-10-24T22:37:06.276Z,64.00
2022-10-24T22:39:33.622Z,64.00
2022-10-24T22:42:00.958Z,63.90
2022-10-24T22:44:28.335Z,63.90
2022-10-24T22:47:26.502Z,63.80
2022-10-24T22:50:33.487Z,64.10
2022-10-24T22:53:00.748Z,63.90
2022-10-24T22:56:02.130Z,64.30
2022-10-24T22:58:30.410Z,63.90
2022-10-24T23:01:23.123Z,63.80
2022-10-24T23:04:41.269Z,64.20
2022-10-24T23:07:30.354Z,64.70
2022-10-24T23:09:57.480Z,64.50
2022-10-24T23:12:25.543Z,64.50
2022-10-24T23:14:53.691Z,64.60
2022-10-24T23:17:26.819Z,64.70
2022-10-24T23:19:55.606Z,64.70
2022-10-24T23:22:27.262Z,64.80
2022-10-24T23:24:57.010Z,64.70
2022-10-24T23:27:39.569Z,64.70
2022-10-24T23:30:22.716Z,64.60
2022-10-24T23:32:50.720Z,64.70
2022-10-24T23:35:19.710Z,64.70
2022-10-24T23:37:51.920Z,64.80
2022-10-24T23:40:29.338Z,64.70
2022-10-24T23:42:57.120Z,64.80
2022-10-24T23:45:27.669Z,64.80
2022-10-24T23:48:30.340Z,64.90
2022-10-24T23:51:06.729Z,65.00
2022-10-24T23:53:50.690Z,64.90
2022-10-24T23:56:21.545Z,64.90
2022-10-24T23:58:49.426Z,64.80
